Strona główna
METAR-TAF:

METAR-TAF

Lotnisko :

Port lotniczy Corumbá

Corumbá, Mato Grosso do Sul, Brazylia

Szerokość geograficzna: 19-05S, Długość geograficzna: 057-30W, wysokość: 130 m

Aktualna obserwacja pogody

Raport powstał 1 godzina i 3 minut temu, godzina 16:00 UTC
Wiatr 9 kt od północny wschód, zmienny między północno-północny wschód i wschód
Temperatura 30°C
Wilgotność 49%
Ciśnienie 1014 hPa
Widzialność 10 km lub więcej
Brak chmur poniżej 1500 m i brak chmur cumulonimbus

METAR: SBCR 301600Z 04009KT 020V080 CAVOK 30/18 Q1014

czas: 13:03 (17:03 UTC)

Prognoza

Raport powstał 8 godziny i 3 minut temu, godzina 09:00 UTC
Prognoza ważna od 30 godzina 12 UTC do 31 godzina 12 UTC
Wiatr 7 kt od wschodnio-północny wschód
Widzialność 10 km lub więcej
Brak chmur poniżej 1500 m i brak chmur cumulonimbus

TAF: SBCR 300900Z 3012/3112 07007KT CAVOK TX28/3018Z TN14/3111Z RMK PDU

Obserwacja i prognoza pogody dla ponad 4000 lotnisk (raport METAR i TAF).

Dostępne stacje oznaczono żółtymi i czerwonymi punktami na mapie.

Najedź kursorem aby zobaczyć nazwę stacji.

Kliknij aby zobaczyć obserwacje i prognozy pogody.

Aby zmienić mapę: kliknij na zielony przycisk z czarnym krzyżykiem, aby powiększyć; na zielony przycisk z myślnikiem, aby pomniejszyć; na zielone strzałki, aby przejść do map sąsiednich.


METAR-TAF: